Time;durP1;ratioP1;P1;durP2;ratioP2;P2;SDS_P1;SDS_P2;PMS_P1;PMS_P2;Temp;Humidity;BMP_temperature;BMP_pressure;BME280_temperature;BME280_humidity;BME280_pressure;Samples;Min_cycle;Max_cycle;Signal;HPM_P1;HPM_P2
2021/01/08 00:02:24;;;;;;;9.93;6.90;;;;;;;-0.52;83.10;97711.63;1632875;88;21631;-68
2021/01/08 00:04:52;;;;;;;8.05;6.55;;;;;;;-0.54;82.99;97704.95;1632714;88;21678;-71
2021/01/08 00:07:20;;;;;;;6.55;5.22;;;;;;;-0.53;82.81;97700.22;1632807;86;21222;-70
2021/01/08 00:09:49;;;;;;;8.33;6.17;;;;;;;-0.53;82.81;97700.22;1632845;86;21155;-70
2021/01/08 00:12:17;;;;;;;11.83;7.45;;;;;;;-0.50;82.76;97708.98;1632638;87;21176;-70
2021/01/08 00:14:45;;;;;;;12.45;7.17;;;;;;;-0.47;82.73;97703.74;1632633;88;21594;-72
2021/01/08 00:17:13;;;;;;;12.45;7.12;;;;;;;-0.53;82.71;97694.67;1632591;86;21218;-72
2021/01/08 00:19:43;;;;;;;8.30;4.85;;;;;;;-0.50;82.62;97703.88;1632645;86;21198;-72
2021/01/08 00:22:11;;;;;;;7.85;6.05;;;;;;;-0.49;82.49;97690.23;1632553;86;21577;-71
2021/01/08 00:24:39;;;;;;;8.88;5.95;;;;;;;-0.49;82.49;97690.23;1632595;88;21247;-72
2021/01/08 00:27:08;;;;;;;8.40;6.58;;;;;;;-0.42;82.15;97700.92;1632696;86;21206;-72
2021/01/08 00:29:36;;;;;;;15.20;7.75;;;;;;;-0.42;82.15;97700.92;1632747;86;21187;-71
2021/01/08 00:32:05;;;;;;;6.92;5.22;;;;;;;-0.50;82.41;97687.30;1632129;87;21186;-71
2021/01/08 00:34:33;;;;;;;9.10;6.12;;;;;;;-0.43;82.66;97700.58;1632496;86;21614;-71
2021/01/08 00:37:01;;;;;;;9.83;6.08;;;;;;;-0.57;82.58;97694.46;1632508;86;21174;-71
2021/01/08 00:39:30;;;;;;;7.37;5.22;;;;;;;-0.49;82.62;97704.26;1632567;86;21177;-71
2021/01/08 00:41:58;;;;;;;6.72;4.92;;;;;;;-0.50;82.73;97716.19;1632694;86;21162;-69
2021/01/08 00:44:28;;;;;;;8.05;6.22;;;;;;;-0.50;82.73;97716.19;1632506;87;21214;-69
2021/01/08 00:46:56;;;;;;;8.28;6.05;;;;;;;-0.47;82.70;97716.94;1632632;88;21246;-71
2021/01/08 00:49:25;;;;;;;16.40;7.95;;;;;;;-0.44;82.80;97725.25;1632625;87;21599;-71
2021/01/08 00:51:53;;;;;;;11.65;6.03;;;;;;;-0.47;82.57;97709.64;1632626;86;21174;-71
2021/01/08 00:54:22;;;;;;;9.33;6.72;;;;;;;-0.50;82.86;97705.98;1632530;86;21167;-72
2021/01/08 00:56:52;;;;;;;14.75;6.55;;;;;;;-0.53;82.94;97709.98;1631819;88;21162;-72
2021/01/08 00:59:35;;;;;;;15.33;7.40;;;;;;;-0.56;82.93;97699.94;1632377;86;21195;-71
2021/01/08 01:02:03;;;;;;;10.68;6.92;;;;;;;-0.54;82.82;97698.12;1632591;88;21194;-71
2021/01/08 01:04:32;;;;;;;14.07;7.33;;;;;;;-0.56;83.10;97699.94;1632584;86;21182;-72
2021/01/08 01:07:01;;;;;;;7.33;5.87;;;;;;;-0.57;82.96;97706.39;1632477;88;21638;-72
2021/01/08 01:09:30;;;;;;;10.63;6.67;;;;;;;-0.54;82.91;97703.22;1632774;87;21162;-70
2021/01/08 01:11:58;;;;;;;11.25;7.58;;;;;;;-0.51;82.83;97695.40;1632629;87;21222;-71
2021/01/08 01:14:26;;;;;;;11.40;7.62;;;;;;;-0.49;82.72;97692.33;1632943;87;21218;-69
2021/01/08 01:16:54;;;;;;;12.65;7.25;;;;;;;-0.53;82.36;97687.02;1632763;86;21199;-71
2021/01/08 01:19:22;;;;;;;10.65;6.35;;;;;;;-0.53;82.36;97687.02;1632553;87;21643;-71
2021/01/08 01:21:50;;;;;;;8.03;5.58;;;;;;;-0.66;82.69;97670.70;1632533;88;21659;-71
2021/01/08 01:24:20;;;;;;;7.97;5.05;;;;;;;-0.62;83.57;97673.47;1632454;87;21151;-71
2021/01/08 01:26:56;;;;;;;9.08;6.17;;;;;;;-0.61;83.66;97677.67;1632548;86;21182;-71
2021/01/08 01:29:25;;;;;;;9.60;7.65;;;;;;;-0.63;83.54;97670.57;1632619;86;21631;-70
2021/01/08 01:31:53;;;;;;;8.90;5.60;;;;;;;-0.62;83.55;97672.64;1633052;86;21607;-70
2021/01/08 01:34:22;;;;;;;16.00;7.47;;;;;;;-0.67;83.63;97671.64;1635620;86;21218;-67
2021/01/08 01:36:50;;;;;;;9.70;6.35;;;;;;;-0.72;83.83;97669.77;1635308;86;21364;-67
2021/01/08 01:39:19;;;;;;;8.38;5.28;;;;;;;-0.75;83.83;97666.56;1635447;88;21647;-68
2021/01/08 01:41:47;;;;;;;17.85;7.75;;;;;;;-0.83;84.02;97647.84;1635284;86;21235;-68
2021/01/08 01:44:15;;;;;;;8.98;6.55;;;;;;;-0.79;84.24;97653.16;1635618;88;21181;-67
2021/01/08 01:46:44;;;;;;;9.68;6.50;;;;;;;-0.80;84.39;97643.02;1635288;86;21635;-67
2021/01/08 01:49:12;;;;;;;11.48;5.78;;;;;;;-0.80;84.39;97643.02;1635439;86;21186;-68
2021/01/08 01:51:41;;;;;;;9.53;5.17;;;;;;;-0.80;84.34;97632.38;1635386;88;21182;-68
2021/01/08 01:54:11;;;;;;;7.20;4.40;;;;;;;-0.79;84.61;97632.76;1635279;86;21214;-67
2021/01/08 01:56:39;;;;;;;10.03;6.72;;;;;;;-0.79;84.40;97628.94;1635551;88;21249;-67
2021/01/08 01:59:07;;;;;;;11.95;6.42;;;;;;;-0.77;84.05;97623.29;1635414;87;21245;-68
2021/01/08 02:01:35;;;;;;;11.35;6.95;;;;;;;-0.77;83.82;97630.94;1635249;88;21255;-67
2021/01/08 02:04:06;;;;;;;13.88;8.45;;;;;;;-0.78;83.68;97621.66;1635227;86;21190;-67
2021/01/08 02:06:37;;;;;;;8.53;5.95;;;;;;;-0.78;83.70;97616.56;1635489;86;21189;-67
2021/01/08 02:09:12;;;;;;;12.18;6.83;;;;;;;-0.78;83.47;97616.56;1635420;88;21253;-68
2021/01/08 02:11:46;;;;;;;10.93;5.47;;;;;;;-0.78;83.55;97620.39;1635624;86;21213;-68
2021/01/08 02:14:22;;;;;;;11.40;6.65;;;;;;;-0.79;83.58;97617.46;1635392;86;21175;-68
2021/01/08 02:16:52;;;;;;;10.55;7.10;;;;;;;-0.81;83.62;97619.25;1635252;86;21190;-68
2021/01/08 02:22:50;;;;;;;8.88;5.97;;;;;;;-0.83;83.56;97621.52;1654765;85;21177;-68
2021/01/08 02:25:28;;;;;;;8.78;5.10;;;;;;;-0.85;83.65;97631.79;1651288;87;21178;-65
2021/01/08 02:28:22;;;;;;;8.15;5.33;;;;;;;-0.88;83.76;97631.13;1654889;85;21155;-67
2021/01/08 02:30:52;;;;;;;4.62;4.15;;;;;;;-0.92;84.08;97616.45;1628762;87;21250;-69
2021/01/08 02:33:21;;;;;;;9.38;4.85;;;;;;;-0.91;84.27;97609.19;1654917;85;21183;-66
2021/01/08 02:35:51;;;;;;;9.68;6.33;;;;;;;-0.97;84.41;97602.67;1654717;85;21155;-68
2021/01/08 02:38:22;;;;;;;9.88;5.40;;;;;;;-0.97;84.34;97606.49;1654982;85;21183;-66
2021/01/08 02:40:52;;;;;;;7.65;5.37;;;;;;;-0.96;84.27;97606.05;1655040;86;21572;-68
2021/01/08 02:43:29;;;;;;;6.85;4.65;;;;;;;-0.95;84.42;97600.05;1654840;85;21604;-66
2021/01/08 02:45:57;;;;;;;7.75;5.75;;;;;;;-0.94;84.50;97600.44;1655024;86;21176;-65
2021/01/08 02:48:26;;;;;;;14.23;5.33;;;;;;;-0.92;84.41;97599.06;1654876;85;21167;-67
2021/01/08 02:50:54;;;;;;;7.92;5.47;;;;;;;-0.97;84.96;97587.83;1654864;87;21179;-68
2021/01/08 02:53:26;;;;;;;10.68;6.03;;;;;;;-0.97;84.96;97587.83;1654792;85;21616;-67
2021/01/08 02:55:59;;;;;;;7.90;5.78;;;;;;;-0.98;84.68;97588.75;1654701;85;21215;-68
2021/01/08 02:58:29;;;;;;;10.18;5.78;;;;;;;-1.05;84.53;97574.22;1654627;85;21151;-67
2021/01/08 03:00:58;;;;;;;16.10;6.42;;;;;;;-1.05;84.53;97574.22;1654724;85;21724;-67
2021/01/08 03:03:28;;;;;;;9.48;5.35;;;;;;;-1.07;84.34;97570.94;1654830;87;21215;-67
2021/01/08 03:05:59;;;;;;;8.08;4.95;;;;;;;-1.12;84.66;97570.34;1654879;85;21190;-68
2021/01/08 03:08:31;;;;;;;10.28;5.55;;;;;;;-1.16;84.70;97569.31;1654806;87;21560;-68
2021/01/08 03:13:43;;;;;;;14.70;6.28;;;;;;;-1.26;85.45;97560.52;1616145;87;21212;-71
2021/01/08 03:16:11;;;;;;;10.48;6.03;;;;;;;-1.27;85.69;97562.23;1642922;86;21164;-71
2021/01/08 03:18:40;;;;;;;7.25;4.83;;;;;;;-1.24;86.02;97566.34;1643216;86;21263;-71
2021/01/08 03:21:09;;;;;;;10.75;6.30;;;;;;;-1.23;86.09;97569.27;1642730;86;21234;-67
2021/01/08 03:23:37;;;;;;;7.78;6.15;;;;;;;-1.21;86.21;97575.13;1642833;86;21160;-67
2021/01/08 03:26:06;;;;;;;7.62;5.47;;;;;;;-1.19;85.86;97569.48;1642701;86;21191;-67
2021/01/08 03:28:34;;;;;;;8.38;4.62;;;;;;;-1.15;85.70;97573.06;1643091;87;21205;-66
2021/01/08 03:31:02;;;;;;;5.22;4.83;;;;;;;-1.12;85.46;97574.17;1642697;86;21640;-66
2021/01/08 03:33:31;;;;;;;8.98;6.20;;;;;;;-1.04;85.44;97571.22;1643005;87;21196;-66
2021/01/08 03:35:59;;;;;;;11.95;5.70;;;;;;;-0.93;85.33;97577.84;1642619;87;21608;-67
2021/01/08 03:38:31;;;;;;;8.80;5.15;;;;;;;-0.89;85.24;97579.77;1642934;87;21191;-67
2021/01/08 03:43:42;;;;;;;8.80;5.37;;;;;;;-0.73;84.88;97589.52;1632751;86;21203;-66
2021/01/08 03:46:10;;;;;;;11.03;6.33;;;;;;;-0.67;84.69;97586.66;1645507;87;21392;-67
2021/01/08 03:48:39;;;;;;;7.33;5.78;;;;;;;-0.58;84.32;97593.34;1645563;86;21214;-69
2021/01/08 03:51:08;;;;;;;10.70;6.85;;;;;;;-0.58;84.32;97593.34;1645421;87;21171;-68
2021/01/08 03:53:37;;;;;;;7.33;5.05;;;;;;;-0.55;84.09;97602.58;1645395;87;21761;-68
2021/01/08 03:56:09;;;;;;;7.22;5.90;;;;;;;-0.63;83.38;97596.62;1645485;87;21294;-65
2021/01/08 03:58:39;;;;;;;8.20;4.92;;;;;;;-0.71;83.37;97587.28;1645312;87;21552;-65
2021/01/08 04:01:07;;;;;;;12.05;6.95;;;;;;;-0.71;83.37;97587.28;1645403;87;21187;-67
2021/01/08 04:03:35;;;;;;;7.30;4.35;;;;;;;-0.64;83.63;97592.86;1645566;87;21599;-67
2021/01/08 04:06:25;;;;;;;7.87;4.75;;;;;;;-0.66;83.40;97579.39;1645699;87;21607;-67
2021/01/08 04:08:55;;;;;;;12.35;7.03;;;;;;;-0.64;83.77;97584.77;1619159;88;21745;-67
2021/01/08 04:11:23;;;;;;;10.20;7.08;;;;;;;-0.58;83.53;97594.62;1619038;88;21231;-67
2021/01/08 04:13:51;;;;;;;9.53;5.42;;;;;;;-0.58;83.53;97583.14;1619187;88;21321;-67
2021/01/08 04:16:19;;;;;;;9.40;5.12;;;;;;;-0.60;83.57;97579.88;1619108;88;21219;-66
2021/01/08 04:18:47;;;;;;;10.15;6.55;;;;;;;-0.52;83.52;97594.30;1619014;88;21464;-67
2021/01/08 04:21:16;;;;;;;8.35;4.95;;;;;;;-0.49;83.48;97585.20;1618796;88;21214;-67
2021/01/08 04:23:44;;;;;;;9.08;4.85;;;;;;;-0.47;83.43;97579.20;1618840;88;21668;-67
2021/01/08 04:26:12;;;;;;;7.75;4.70;;;;;;;-0.44;83.37;97586.68;1618792;88;21180;-71
2021/01/08 04:28:41;;;;;;;9.15;5.65;;;;;;;-0.43;83.29;97590.88;1618839;88;21194;-71
2021/01/08 04:31:09;;;;;;;8.35;5.65;;;;;;;-0.42;83.17;97583.58;1619031;88;21182;-71
2021/01/08 04:33:40;;;;;;;10.32;6.58;;;;;;;-0.41;83.04;97579.67;1618997;88;21221;-71
2021/01/08 04:36:10;;;;;;;11.50;6.05;;;;;;;-0.42;82.92;97574.65;1618893;88;21230;-71
2021/01/08 04:38:40;;;;;;;13.72;6.50;;;;;;;-0.47;82.81;97571.89;1618852;88;21192;-71
2021/01/08 04:41:08;;;;;;;13.15;7.17;;;;;;;-0.45;82.62;97569.27;1618881;88;21619;-70
2021/01/08 04:43:37;;;;;;;14.33;6.65;;;;;;;-0.46;82.61;97575.27;1619116;88;21194;-70
2021/01/08 04:46:17;;;;;;;7.90;5.60;;;;;;;-0.48;82.66;97564.34;1619072;87;21267;-70
2021/01/08 04:48:46;;;;;;;7.33;4.40;;;;;;;-0.47;82.73;97576.20;1619022;88;21295;-70
2021/01/08 04:51:17;;;;;;;8.25;5.05;;;;;;;-0.47;82.70;97590.23;1618908;88;21187;-70
2021/01/08 04:53:46;;;;;;;6.78;6.12;;;;;;;-0.46;82.80;97590.58;1618897;88;21626;-70
2021/01/08 04:56:21;;;;;;;11.05;6.30;;;;;;;-0.45;82.78;97585.03;1619210;88;21340;-70
2021/01/08 04:58:49;;;;;;;8.38;4.00;;;;;;;-0.44;82.79;97586.68;1619029;88;21623;-70
2021/01/08 05:01:17;;;;;;;10.98;6.58;;;;;;;-0.47;82.75;97581.30;1618938;88;21187;-71
2021/01/08 05:03:47;;;;;;;5.85;4.20;;;;;;;-0.50;82.77;97592.92;1618923;88;21640;-71
2021/01/08 05:06:15;;;;;;;7.33;5.47;;;;;;;-0.50;82.84;97599.30;1619306;88;21376;-71
2021/01/08 05:08:43;;;;;;;11.30;5.83;;;;;;;-0.47;82.96;97605.98;1608933;88;21755;-71
2021/01/08 05:11:27;;;;;;;5.80;4.80;;;;;;;-0.45;83.04;97599.06;1655623;87;21254;-71
2021/01/08 05:14:05;;;;;;;5.60;4.45;;;;;;;-0.47;83.42;97587.68;1655600;87;21635;-71
2021/01/08 05:16:55;;;;;;;11.00;5.55;;;;;;;-0.56;83.51;97592.00;1653121;87;21167;-71
2021/01/08 05:19:24;;;;;;;5.90;4.92;;;;;;;-0.57;83.67;97594.17;1715364;82;21757;-70
2021/01/08 05:21:54;;;;;;;9.03;4.15;;;;;;;-0.57;83.67;97594.17;1715415;84;21194;-71
2021/01/08 05:27:03;;;;;;;7.77;5.43;;;;;;;-0.58;83.64;97595.89;1715544;82;21210;-72
2021/01/08 05:29:31;;;;;;;9.40;4.25;;;;;;;-0.53;83.72;97591.83;1715479;84;21472;-68
2021/01/08 05:31:59;;;;;;;7.80;4.72;;;;;;;-0.46;83.37;97572.72;1715397;82;21629;-68
2021/01/08 05:34:29;;;;;;;8.83;6.20;;;;;;;-0.46;83.37;97572.72;1691565;84;21226;-68
2021/01/08 05:36:58;;;;;;;10.93;7.05;;;;;;;-0.36;83.55;97573.05;1715268;82;21651;-66
2021/01/08 05:39:27;;;;;;;7.58;5.65;;;;;;;-0.35;83.54;97570.88;1715197;84;21167;-69
2021/01/08 05:41:56;;;;;;;19.02;7.70;;;;;;;-0.32;83.18;97567.70;1715298;82;21174;-68
2021/01/08 05:44:24;;;;;;;10.08;7.95;;;;;;;-0.33;82.99;97572.42;1715178;82;21191;-69
2021/01/08 05:46:53;;;;;;;9.70;6.45;;;;;;;-0.43;83.08;97581.51;1715224;84;21166;-68
2021/01/08 05:49:23;;;;;;;7.58;6.05;;;;;;;-0.43;83.08;97581.51;1715385;83;21238;-67
2021/01/08 05:51:52;;;;;;;11.53;8.35;;;;;;;-0.45;83.31;97578.20;1715248;83;21189;-67
2021/01/08 05:54:21;;;;;;;12.75;7.75;;;;;;;-0.45;83.35;97574.38;1715064;82;21178;-67
2021/01/08 05:56:50;;;;;;;10.32;8.00;;;;;;;-0.48;83.71;97583.48;1715256;82;21174;-68
2021/01/08 05:59:23;;;;;;;15.70;7.28;;;;;;;-0.48;83.71;97583.48;1691145;84;21166;-68
2021/01/08 06:01:55;;;;;;;16.35;10.65;;;;;;;-0.53;83.74;97567.15;1715221;83;21560;-68
2021/01/08 06:04:30;;;;;;;13.32;9.75;;;;;;;-0.45;83.63;97579.48;1715415;83;21155;-68
2021/01/08 06:06:58;;;;;;;13.03;8.78;;;;;;;-0.37;83.89;97580.33;1715147;83;21171;-68
2021/01/08 06:09:29;;;;;;;11.45;6.00;;;;;;;-0.34;83.76;97582.70;1715106;82;21170;-68
2021/01/08 06:11:59;;;;;;;6.80;5.40;;;;;;;-0.32;83.62;97571.53;1691410;84;21182;-68
2021/01/08 06:14:27;;;;;;;8.60;4.47;;;;;;;-0.33;83.53;97583.08;1715361;82;21663;-69
2021/01/08 06:16:56;;;;;;;13.75;7.30;;;;;;;-0.38;83.49;97574.84;1715068;84;21204;-68
2021/01/08 06:19:25;;;;;;;8.73;5.58;;;;;;;-0.39;83.40;97582.98;1705575;83;21182;-68
2021/01/08 06:21:58;;;;;;;7.67;5.60;;;;;;;-0.42;83.27;97580.58;1705202;83;21167;-68
2021/01/08 06:24:28;;;;;;;7.37;5.62;;;;;;;-0.42;83.27;97580.58;1705321;83;21710;-68
2021/01/08 06:26:56;;;;;;;8.60;5.70;;;;;;;-0.35;83.29;97584.91;1705147;84;21171;-69
2021/01/08 06:29:29;;;;;;;6.45;4.72;;;;;;;-0.31;83.27;97581.28;1705437;83;21167;-69
2021/01/08 06:32:13;;;;;;;9.98;6.30;;;;;;;-0.29;83.46;97582.83;1689980;84;21172;-69
2021/01/08 06:34:46;;;;;;;7.00;5.17;;;;;;;-0.30;83.47;97571.42;1705427;84;21175;-68
2021/01/08 06:37:18;;;;;;;12.10;7.20;;;;;;;-0.20;83.62;97588.70;1705527;84;21207;-69
2021/01/08 06:39:47;;;;;;;8.63;5.20;;;;;;;-0.15;83.52;97584.59;1705416;83;21174;-66
2021/01/08 06:42:31;;;;;;;10.65;6.95;;;;;;;-0.07;83.32;97587.55;1701209;83;21254;-69
2021/01/08 06:44:59;;;;;;;9.43;6.60;;;;;;;-0.03;83.10;97586.02;1692917;84;21111;-69
2021/01/08 06:47:29;;;;;;;7.58;6.08;;;;;;;0.00;82.94;97588.87;1694855;84;21171;-67
2021/01/08 06:49:58;;;;;;;12.88;6.90;;;;;;;0.05;83.01;97594.96;1690179;83;21174;-69
2021/01/08 06:52:30;;;;;;;11.00;6.53;;;;;;;0.10;82.97;97597.63;1690305;84;21171;-69
2021/01/08 06:54:59;;;;;;;13.00;6.75;;;;;;;0.14;83.02;97592.72;1674093;84;21187;-69
2021/01/08 06:57:31;;;;;;;9.45;7.47;;;;;;;0.15;82.67;97593.09;1675667;85;21202;-67
2021/01/08 07:00:22;;;;;;;10.63;6.60;;;;;;;0.19;82.94;97597.57;1700191;84;21230;-67
2021/01/08 07:02:56;;;;;;;18.05;8.50;;;;;;;0.24;82.89;97599.38;1656313;84;21192;-68
2021/01/08 07:05:26;;;;;;;7.33;6.22;;;;;;;0.26;82.70;97596.30;1672825;84;21184;-67
2021/01/08 07:07:55;;;;;;;19.67;7.78;;;;;;;0.24;82.64;97596.38;1672819;84;21633;-68
2021/01/08 07:10:24;;;;;;;13.00;9.13;;;;;;;0.26;82.59;97600.13;1646575;84;21192;-65
2021/01/08 07:12:57;;;;;;;18.37;9.38;;;;;;;0.26;83.15;97597.58;1672453;84;21190;-64
2021/01/08 07:15:26;;;;;;;21.55;7.72;;;;;;;0.18;85.10;97601.85;1672708;84;21787;-67
2021/01/08 07:17:55;;;;;;;9.75;7.45;;;;;;;0.23;84.59;97599.87;1672841;84;21197;-66
2021/01/08 07:20:26;;;;;;;14.00;10.05;;;;;;;0.16;85.04;97593.44;1672439;84;21601;-65
2021/01/08 07:22:56;;;;;;;15.83;9.83;;;;;;;0.02;86.18;97602.80;1644237;84;21642;-65
2021/01/08 07:25:25;;;;;;;11.40;7.22;;;;;;;-0.03;86.00;97590.29;1672147;84;21712;-65
2021/01/08 07:27:54;;;;;;;11.75;8.95;;;;;;;0.02;86.39;97588.31;1672620;84;21611;-69
2021/01/08 07:30:23;;;;;;;9.85;7.10;;;;;;;-0.05;86.34;97594.67;1672719;84;21326;-68
2021/01/08 07:32:52;;;;;;;9.28;7.33;;;;;;;0.03;85.58;97601.90;1672826;84;21152;-68
2021/01/08 07:35:32;;;;;;;16.42;8.48;;;;;;;0.13;85.20;97610.67;1672874;84;21215;-68
2021/01/08 07:38:33;;;;;;;8.65;6.20;;;;;;;0.13;85.17;97611.95;1671892;84;21594;-69
2021/01/08 07:41:01;;;;;;;13.10;6.78;;;;;;;0.17;84.83;97609.14;1671354;84;21213;-69
2021/01/08 07:43:35;;;;;;;8.18;6.25;;;;;;;0.20;85.06;97602.57;1671273;84;21362;-68
2021/01/08 07:46:05;;;;;;;10.05;6.33;;;;;;;0.30;84.90;97604.98;1671477;85;21673;-68
2021/01/08 07:48:38;;;;;;;13.48;8.98;;;;;;;0.28;84.03;97609.34;1671469;85;21374;-68
2021/01/08 07:51:13;;;;;;;13.18;9.33;;;;;;;0.30;84.61;97616.48;1676288;85;21207;-68
2021/01/08 07:53:46;;;;;;;12.78;7.30;;;;;;;0.38;84.84;97618.14;1670299;85;21206;-68
2021/01/08 07:56:21;;;;;;;13.58;9.88;;;;;;;0.47;84.22;97615.03;1682766;85;21547;-67
2021/01/08 07:59:05;;;;;;;9.95;7.28;;;;;;;0.54;83.94;97607.85;1694899;83;21226;-68
2021/01/08 08:01:36;;;;;;;15.48;8.63;;;;;;;0.55;84.65;97615.86;1694938;84;21164;-67
2021/01/08 08:04:09;;;;;;;12.23;7.90;;;;;;;0.69;84.58;97616.34;1690915;83;21608;-68
2021/01/08 08:06:41;;;;;;;13.78;8.68;;;;;;;0.78;83.83;97609.39;1674794;85;21182;-67
2021/01/08 08:09:14;;;;;;;17.67;7.60;;;;;;;0.72;82.86;97606.77;1665798;85;21183;-68
2021/01/08 08:11:44;;;;;;;29.07;12.30;;;;;;;0.84;83.25;97607.31;1660903;85;21182;-69
2021/01/08 08:14:19;;;;;;;21.23;12.85;;;;;;;0.88;82.92;97604.94;1660835;85;21620;-68
2021/01/08 08:16:47;;;;;;;12.50;8.55;;;;;;;0.93;82.84;97604.19;1668685;85;21207;-69
2021/01/08 08:19:18;;;;;;;11.65;7.53;;;;;;;0.94;82.34;97605.84;1670852;85;21177;-67
2021/01/08 08:21:49;;;;;;;18.90;10.68;;;;;;;1.01;82.48;97607.59;1671204;85;21334;-67
2021/01/08 08:24:18;;;;;;;17.42;10.38;;;;;;;1.01;81.98;97607.59;1671299;85;21347;-67
2021/01/08 08:26:49;;;;;;;16.50;9.95;;;;;;;0.93;81.51;97608.02;1682309;83;21159;-69
2021/01/08 08:29:19;;;;;;;18.48;10.72;;;;;;;0.82;82.69;97609.58;1694845;83;21618;-66
2021/01/08 08:31:50;;;;;;;24.18;13.13;;;;;;;0.79;82.88;97612.32;1694851;83;21258;-67
2021/01/08 08:34:33;;;;;;;17.87;11.55;;;;;;;0.81;82.59;97616.45;1694823;83;21178;-67
2021/01/08 08:37:29;;;;;;;27.13;13.40;;;;;;;0.89;82.59;97612.98;1695118;83;21186;-67
2021/01/08 08:40:04;;;;;;;28.60;15.55;;;;;;;0.92;82.30;97621.73;1670059;84;21173;-72
2021/01/08 08:42:33;;;;;;;22.20;14.30;;;;;;;0.97;82.16;97630.42;1671348;86;21201;-66
2021/01/08 08:45:01;;;;;;;30.82;16.75;;;;;;;1.07;82.05;97630.22;1671366;85;21181;-67
2021/01/08 08:47:29;;;;;;;27.00;15.45;;;;;;;1.10;82.02;97623.63;1671461;86;21169;-67
2021/01/08 08:50:03;;;;;;;35.58;17.32;;;;;;;1.15;81.83;97624.64;1668272;86;21724;-66
2021/01/08 08:52:31;;;;;;;27.60;16.62;;;;;;;1.15;81.71;97625.92;1671434;84;21150;-66
2021/01/08 08:54:59;;;;;;;29.52;16.97;;;;;;;1.14;82.09;97619.16;1671519;86;21589;-66
2021/01/08 08:57:27;;;;;;;23.92;13.80;;;;;;;1.26;81.88;97613.30;1671262;84;21621;-66
2021/01/08 08:59:56;;;;;;;34.95;12.80;;;;;;;1.35;81.59;97619.97;1671488;86;21150;-66
2021/01/08 09:02:26;;;;;;;23.20;13.40;;;;;;;1.41;81.42;97612.35;1671188;84;21609;-66
2021/01/08 09:05:05;;;;;;;24.72;14.07;;;;;;;1.46;80.64;97608.23;1670806;84;21150;-67
2021/01/08 09:07:37;;;;;;;25.90;12.13;;;;;;;1.42;80.61;97605.05;1670032;85;21248;-67
2021/01/08 09:10:32;;;;;;;18.98;12.70;;;;;;;1.49;80.64;97605.02;1671148;86;21166;-67
2021/01/08 09:13:11;;;;;;;13.80;9.43;;;;;;;1.49;80.80;97609.31;1636943;88;21157;-66
2021/01/08 09:29:39;;;;;;;17.60;7.87;;;;;;;1.60;80.08;97574.46;1678273;84;21663;-66
2021/01/08 09:32:09;;;;;;;14.95;8.30;;;;;;;1.67;80.03;97558.28;1678015;84;21170;-67
2021/01/08 09:34:38;;;;;;;18.75;9.60;;;;;;;1.75;79.75;97554.28;1678091;84;21168;-66
2021/01/08 09:37:16;;;;;;;19.80;9.60;;;;;;;1.81;79.92;97552.63;1666160;85;21198;-66
2021/01/08 09:39:44;;;;;;;17.73;10.28;;;;;;;1.66;80.49;97543.83;1677888;84;21189;-66
2021/01/08 09:42:12;;;;;;;14.18;9.18;;;;;;;1.79;79.48;97533.97;1665966;85;21228;-67
2021/01/08 09:45:01;;;;;;;19.40;9.58;;;;;;;1.84;78.65;97529.84;1678004;85;21601;-66
2021/01/08 09:47:54;;;;;;;14.18;8.28;;;;;;;2.07;78.97;97523.21;1637431;86;21193;-66
2021/01/08 09:50:29;;;;;;;20.97;10.00;;;;;;;2.16;78.47;97522.16;1728468;82;21520;-67
2021/01/08 09:53:01;;;;;;;15.58;7.72;;;;;;;2.40;78.45;97514.58;1728739;81;21156;-68
2021/01/08 09:55:31;;;;;;;19.73;11.43;;;;;;;2.58;78.16;97507.38;1726857;83;21154;-68
2021/01/08 09:58:01;;;;;;;15.03;10.60;;;;;;;2.76;77.91;97502.30;1728748;82;21175;-68
2021/01/08 10:00:33;;;;;;;22.85;11.00;;;;;;;2.79;75.37;97501.62;1728655;83;21202;-67
2021/01/08 10:03:07;;;;;;;20.55;11.22;;;;;;;2.92;75.60;97502.84;1728753;82;21710;-67
2021/01/08 10:05:36;;;;;;;17.80;10.98;;;;;;;2.98;74.57;97505.00;1727022;82;21576;-65
2021/01/08 10:08:05;;;;;;;20.82;10.85;;;;;;;3.05;75.05;97497.23;1728495;81;21245;-67
2021/01/08 10:10:39;;;;;;;17.32;11.38;;;;;;;3.02;75.08;97476.11;1728447;81;21159;-67
2021/01/08 10:13:16;;;;;;;15.85;9.53;;;;;;;3.20;74.94;97483.31;1728447;82;21170;-67
2021/01/08 10:15:49;;;;;;;17.23;9.48;;;;;;;3.28;74.85;97477.64;1728885;83;21304;-67
2021/01/08 10:18:43;;;;;;;17.40;9.15;;;;;;;3.34;74.48;97471.63;1728496;82;21164;-67
2021/01/08 10:21:13;;;;;;;16.27;8.88;;;;;;;3.38;73.93;97476.53;1641376;87;21174;-67
2021/01/08 10:24:03;;;;;;;14.93;9.58;;;;;;;3.39;72.97;97490.98;1641373;86;21233;-68
2021/01/08 10:26:35;;;;;;;15.63;9.30;;;;;;;3.36;72.73;97489.46;1560230;91;21216;-68
2021/01/08 10:29:06;;;;;;;19.55;10.85;;;;;;;3.27;72.06;97484.97;1590185;89;21348;-68
2021/01/08 10:31:34;;;;;;;19.07;9.50;;;;;;;3.28;72.34;97477.17;1589787;89;21247;-68
2021/01/08 10:34:03;;;;;;;17.77;10.32;;;;;;;3.28;72.32;97465.63;1560202;90;21633;-68
2021/01/08 10:36:35;;;;;;;15.30;8.23;;;;;;;3.27;72.30;97469.58;1589853;89;21198;-67
2021/01/08 10:39:03;;;;;;;16.10;9.40;;;;;;;3.32;72.87;97469.62;1559949;91;21224;-67
2021/01/08 10:41:31;;;;;;;17.05;10.65;;;;;;;3.38;72.48;97472.69;1589696;89;21647;-67
2021/01/08 10:44:00;;;;;;;19.40;10.45;;;;;;;3.28;72.50;97469.94;1589800;89;21206;-67
2021/01/08 10:46:28;;;;;;;17.35;9.95;;;;;;;3.17;72.69;97466.05;1589651;89;21202;-66
2021/01/08 10:48:56;;;;;;;17.27;9.40;;;;;;;2.97;73.08;97470.47;1559967;90;21308;-67
2021/01/08 10:51:28;;;;;;;20.57;9.40;;;;;;;2.96;72.83;97464.52;1589784;89;21714;-70
2021/01/08 10:53:57;;;;;;;19.02;9.05;;;;;;;2.91;72.40;97459.38;1559985;90;21220;-67
2021/01/08 10:56:30;;;;;;;19.92;8.30;;;;;;;2.71;71.81;97461.58;1589578;89;21651;-68
2021/01/08 10:58:59;;;;;;;17.12;10.20;;;;;;;2.57;72.87;97469.39;1589612;89;21232;-67
2021/01/08 11:01:27;;;;;;;16.15;8.28;;;;;;;2.44;73.51;97474.19;1589865;89;21215;-67
2021/01/08 11:03:56;;;;;;;15.25;9.50;;;;;;;2.63;73.12;97476.67;1560161;90;21225;-67
2021/01/08 11:06:24;;;;;;;17.02;8.70;;;;;;;2.63;71.51;97477.13;1589707;89;21198;-67
2021/01/08 11:08:53;;;;;;;10.90;6.87;;;;;;;2.73;71.58;97467.41;1560154;90;21228;-68
2021/01/08 11:11:21;;;;;;;14.93;7.70;;;;;;;2.79;70.85;97457.20;1590156;89;21198;-68
2021/01/08 11:13:49;;;;;;;10.05;5.95;;;;;;;2.71;69.66;97464.61;1560237;90;21346;-67
2021/01/08 11:16:18;;;;;;;9.68;6.55;;;;;;;2.84;69.95;97455.94;1589793;89;21242;-69
2021/01/08 11:18:46;;;;;;;17.27;5.80;;;;;;;2.90;69.77;97450.03;1560182;91;21220;-68
2021/01/08 11:21:22;;;;;;;10.78;6.65;;;;;;;2.93;68.76;97453.20;1589878;89;21198;-67
2021/01/08 11:23:51;;;;;;;8.97;6.10;;;;;;;2.97;68.34;97457.65;1560302;91;21296;-68
2021/01/08 11:26:27;;;;;;;11.15;5.80;;;;;;;3.01;69.08;97470.61;1608065;87;21634;-69
2021/01/08 11:28:59;;;;;;;11.53;5.17;;;;;;;3.06;68.94;97464.70;1611864;88;21241;-69
2021/01/08 11:31:34;;;;;;;10.30;5.90;;;;;;;3.09;68.09;97469.15;1581256;90;21179;-68
2021/01/08 11:34:25;;;;;;;9.68;4.70;;;;;;;3.09;67.89;97466.59;1581213;91;21212;-68
2021/01/08 11:36:58;;;;;;;14.05;4.55;;;;;;;3.13;69.20;97458.20;1639600;85;21196;-68
2021/01/08 11:39:28;;;;;;;17.77;5.78;;;;;;;3.12;67.83;97454.81;1639964;86;21158;-68
2021/01/08 11:41:57;;;;;;;12.03;5.92;;;;;;;3.05;68.26;97451.52;1639833;85;21185;-68
2021/01/08 11:44:25;;;;;;;7.30;5.25;;;;;;;3.07;68.91;97438.95;1639893;87;21188;-68
2021/01/08 11:46:53;;;;;;;10.38;5.67;;;;;;;3.08;68.96;97432.87;1639568;87;21189;-69
2021/01/08 11:49:22;;;;;;;8.98;5.60;;;;;;;3.13;68.95;97425.67;1639563;85;21294;-68
2021/01/08 11:51:50;;;;;;;15.55;7.22;;;;;;;3.16;69.34;97420.78;1639732;85;21528;-69
2021/01/08 11:54:18;;;;;;;13.53;8.20;;;;;;;3.20;70.02;97417.89;1639616;85;21812;-68
2021/01/08 11:56:46;;;;;;;15.48;9.15;;;;;;;3.22;70.87;97412.66;1639868;86;21245;-68
2021/01/08 11:59:14;;;;;;;16.27;9.40;;;;;;;3.21;71.90;97404.14;1639664;86;21173;-67
2021/01/08 12:01:43;;;;;;;29.42;8.75;;;;;;;3.21;72.78;97397.73;1639728;86;21209;-68
2021/01/08 12:04:11;;;;;;;16.30;10.90;;;;;;;3.13;73.94;97395.35;1639729;87;21181;-69
2021/01/08 12:06:39;;;;;;;16.85;10.13;;;;;;;3.04;75.43;97392.16;1639625;87;21196;-69
2021/01/08 12:09:10;;;;;;;17.75;10.72;;;;;;;3.07;75.62;97385.55;1639679;86;21176;-67
2021/01/08 12:11:39;;;;;;;17.40;11.60;;;;;;;3.08;75.71;97391.83;1639981;85;21681;-69
2021/01/08 12:14:08;;;;;;;18.30;11.25;;;;;;;3.01;76.36;97399.62;1648966;85;21170;-68
2021/01/08 12:16:36;;;;;;;23.40;12.95;;;;;;;2.91;76.70;97412.75;1640937;85;21186;-68